Terminal Aerodrome Forecast
Issued by NWS

Home | Current Version | Previous Version | Text Only | Print | Product List | Glossary On
Versions: 1 2 3 4 5 6 7 8 9 10 11 12 13 14 15 16 17 18 19 20 21 22 23 24 25 26
000
FTUS44 KFWD 192325
TAFGKY
TAF
KGKY 192325Z 2000/2024 16015KT P6SM BKN022
     FM200200 16015KT P6SM BKN016
     FM200500 17012KT 3SM -DZ BR BKN006
     FM201600 17013KT P6SM BKN015
     FM201700 16015KT P6SM FEW025=

USA.gov is the U.S. government's official web portal to all federal, state and local government web resources and services.